createdAt,value
2023-04-30T00:02:14.542Z,7.37
2023-04-30T00:04:41.076Z,7.34
2023-04-30T00:07:08.523Z,7.32
2023-04-30T00:09:35.171Z,7.27
2023-04-30T00:12:01.759Z,7.22
2023-04-30T00:14:28.228Z,7.17
2023-04-30T00:16:54.661Z,7.20
2023-04-30T00:19:21.148Z,7.23
2023-04-30T00:21:47.750Z,7.26
2023-04-30T00:24:14.247Z,7.25
2023-04-30T00:26:40.679Z,7.24
2023-04-30T00:29:07.468Z,7.23
2023-04-30T00:31:33.988Z,7.24
2023-04-30T00:34:00.557Z,7.24
2023-04-30T00:36:27.139Z,7.20
2023-04-30T00:38:53.669Z,7.12
2023-04-30T00:41:21.167Z,7.08
2023-04-30T00:43:47.648Z,7.08
2023-04-30T00:46:14.307Z,7.01
2023-04-30T00:48:40.808Z,6.99
2023-04-30T00:51:07.632Z,6.97
2023-04-30T00:53:35.169Z,6.91
2023-04-30T00:56:02.064Z,6.81
2023-04-30T00:58:28.789Z,6.78
2023-04-30T01:00:55.262Z,6.70
2023-04-30T01:03:23.139Z,6.69
2023-04-30T01:05:50.297Z,6.73
2023-04-30T01:08:16.965Z,6.75
2023-04-30T01:10:54.656Z,6.73
2023-04-30T01:13:38.862Z,6.67
2023-04-30T01:16:27.366Z,6.63
2023-04-30T01:19:01.958Z,6.65
2023-04-30T01:21:30.823Z,6.64
2023-04-30T01:24:13.241Z,6.57
2023-04-30T01:26:52.979Z,6.56
2023-04-30T01:29:23.032Z,6.53
2023-04-30T01:31:49.491Z,6.54
2023-04-30T01:34:16.041Z,6.53
2023-04-30T01:36:57.807Z,6.53
2023-04-30T01:39:39.489Z,6.48
2023-04-30T01:42:20.688Z,6.41
2023-04-30T01:44:59.246Z,6.41
2023-04-30T01:47:46.327Z,6.36
2023-04-30T01:50:29.749Z,6.33
2023-04-30T01:52:59.692Z,6.36
2023-04-30T01:55:41.323Z,6.41
2023-04-30T01:58:12.444Z,6.40
2023-04-30T02:00:39.009Z,6.37
2023-04-30T02:03:05.832Z,6.32
2023-04-30T02:05:32.444Z,6.26
2023-04-30T02:07:58.983Z,6.24
2023-04-30T02:10:26.907Z,6.23
2023-04-30T02:12:53.695Z,6.25
2023-04-30T02:15:20.327Z,6.25
2023-04-30T02:17:46.955Z,6.24
2023-04-30T02:20:13.705Z,6.23
2023-04-30T02:22:40.269Z,6.23
2023-04-30T02:25:07.500Z,6.21
2023-04-30T02:27:34.236Z,6.19
2023-04-30T02:30:01.159Z,6.18
2023-04-30T02:32:27.833Z,6.18
2023-04-30T02:34:54.288Z,6.13
2023-04-30T02:37:20.940Z,6.12
2023-04-30T02:39:47.490Z,6.01
2023-04-30T02:42:14.050Z,5.91
2023-04-30T02:44:41.109Z,5.85
2023-04-30T02:47:07.505Z,5.83
2023-04-30T02:49:33.926Z,5.81
2023-04-30T02:52:00.834Z,5.79
2023-04-30T02:54:27.413Z,5.79
2023-04-30T02:56:54.079Z,5.73
2023-04-30T02:59:20.582Z,5.69
2023-04-30T03:01:47.208Z,5.61
2023-04-30T03:04:13.796Z,5.58
2023-04-30T03:06:40.266Z,5.52
2023-04-30T03:09:07.060Z,5.50
2023-04-30T03:11:37.404Z,5.48
2023-04-30T03:14:04.955Z,5.49
2023-04-30T03:16:31.657Z,5.50
2023-04-30T03:18:58.446Z,5.53
2023-04-30T03:21:24.962Z,5.54
2023-04-30T03:23:51.715Z,5.53
2023-04-30T03:26:18.302Z,5.53
2023-04-30T03:28:44.743Z,5.56
2023-04-30T03:31:11.233Z,5.55
2023-04-30T03:33:37.821Z,5.54
2023-04-30T03:36:04.560Z,5.55
2023-04-30T03:38:31.029Z,5.55
2023-04-30T03:40:57.468Z,5.52
2023-04-30T03:43:24.029Z,5.49
2023-04-30T03:45:50.577Z,5.45
2023-04-30T03:48:17.132Z,5.42
2023-04-30T03:50:44.150Z,5.39
2023-04-30T03:53:10.703Z,5.35
2023-04-30T03:55:37.595Z,5.34
2023-04-30T03:58:04.191Z,5.30
2023-04-30T04:00:31.156Z,5.21
2023-04-30T04:02:59.387Z,5.18
2023-04-30T04:05:26.602Z,5.18
2023-04-30T04:07:53.086Z,5.11
2023-04-30T04:10:19.539Z,5.08
2023-04-30T04:12:46.556Z,5.05
2023-04-30T04:15:13.438Z,5.00
2023-04-30T04:17:40.119Z,5.04
2023-04-30T04:20:07.626Z,5.10
2023-04-30T04:22:34.128Z,5.09
2023-04-30T04:25:01.338Z,5.06
2023-04-30T04:27:27.888Z,5.05
2023-04-30T04:29:55.027Z,5.09
2023-04-30T04:32:22.699Z,5.14
2023-04-30T04:34:49.621Z,5.16
2023-04-30T04:37:17.517Z,5.19
2023-04-30T04:39:45.131Z,5.22
2023-04-30T04:42:12.059Z,5.26
2023-04-30T04:44:39.419Z,5.30
2023-04-30T04:47:06.095Z,5.31
2023-04-30T04:49:32.552Z,5.34
2023-04-30T04:51:58.969Z,5.32
2023-04-30T04:54:25.430Z,5.28
2023-04-30T04:56:51.922Z,5.30
2023-04-30T04:59:19.001Z,5.31
2023-04-30T05:01:45.570Z,5.28
2023-04-30T05:04:13.809Z,5.32
2023-04-30T05:06:41.482Z,5.35
2023-04-30T05:09:09.623Z,5.41
2023-04-30T05:11:36.359Z,5.47
2023-04-30T05:14:02.893Z,5.51
2023-04-30T05:16:29.530Z,5.54
2023-04-30T05:18:56.089Z,5.57
2023-04-30T05:21:23.083Z,5.62
2023-04-30T05:23:49.570Z,5.65
2023-04-30T05:26:16.118Z,5.72
2023-04-30T05:28:42.584Z,5.76
2023-04-30T05:31:09.055Z,5.81
2023-04-30T05:33:37.029Z,5.87
2023-04-30T05:36:03.848Z,5.95
2023-04-30T05:38:30.544Z,6.01
2023-04-30T05:40:57.016Z,6.02
2023-04-30T05:43:23.529Z,6.01
2023-04-30T05:45:50.073Z,6.07
2023-04-30T05:48:16.710Z,6.15
2023-04-30T05:50:43.640Z,6.19
2023-04-30T05:53:10.191Z,6.29
2023-04-30T05:55:36.619Z,6.36
2023-04-30T05:58:03.185Z,6.41
2023-04-30T06:00:29.919Z,6.48
2023-04-30T06:02:56.433Z,6.51
2023-04-30T06:05:23.040Z,6.60
2023-04-30T06:07:49.507Z,6.64
2023-04-30T06:10:17.034Z,6.66
2023-04-30T06:12:43.521Z,6.72
2023-04-30T06:15:10.333Z,6.80
2023-04-30T06:17:37.172Z,6.83
2023-04-30T06:20:07.021Z,6.92
2023-04-30T06:22:34.467Z,6.99
2023-04-30T06:25:01.050Z,7.05
2023-04-30T06:27:32.184Z,7.12
2023-04-30T06:30:00.837Z,7.15
2023-04-30T06:32:27.398Z,7.23
2023-04-30T06:34:55.328Z,7.33
2023-04-30T06:37:21.777Z,7.41
2023-04-30T06:39:48.267Z,7.50
2023-04-30T06:42:14.801Z,7.58
2023-04-30T06:44:41.249Z,7.70
2023-04-30T06:47:07.827Z,7.80
2023-04-30T06:49:34.249Z,7.92
2023-04-30T06:52:01.542Z,8.02
2023-04-30T06:54:28.247Z,8.15
2023-04-30T06:56:54.679Z,8.32
2023-04-30T06:59:21.625Z,8.47
2023-04-30T07:01:48.259Z,8.64
2023-04-30T07:04:14.930Z,8.72
2023-04-30T07:06:41.764Z,8.78
2023-04-30T07:09:08.641Z,8.83
2023-04-30T07:11:35.305Z,8.97
2023-04-30T07:14:01.760Z,9.11
2023-04-30T07:16:28.342Z,9.24
2023-04-30T07:18:54.888Z,9.35
2023-04-30T07:21:21.918Z,9.38
2023-04-30T07:23:48.789Z,9.44
2023-04-30T07:26:15.959Z,9.61
2023-04-30T07:28:42.534Z,9.67
2023-04-30T07:31:09.167Z,9.76
2023-04-30T07:33:35.727Z,9.88
2023-04-30T07:36:02.158Z,9.93
2023-04-30T07:38:29.472Z,9.91
2023-04-30T07:40:56.016Z,9.90
2023-04-30T07:43:22.506Z,9.95
2023-04-30T07:45:50.042Z,10.09
2023-04-30T07:48:17.207Z,10.07
2023-04-30T07:50:43.672Z,10.12
2023-04-30T07:53:10.425Z,10.18
2023-04-30T07:55:37.069Z,10.14
2023-04-30T07:58:04.446Z,10.19
2023-04-30T08:00:31.275Z,10.24
2023-04-30T08:02:59.280Z,10.31
2023-04-30T08:05:26.946Z,10.32
2023-04-30T08:07:53.483Z,10.39
2023-04-30T08:10:20.091Z,10.53
2023-04-30T08:12:46.775Z,10.50
2023-04-30T08:15:13.400Z,10.62
2023-04-30T08:17:39.980Z,10.67
2023-04-30T08:20:06.953Z,10.71
2023-04-30T08:22:33.645Z,10.75
2023-04-30T08:25:01.871Z,10.82
2023-04-30T08:27:28.697Z,10.93
2023-04-30T08:29:55.463Z,10.97
2023-04-30T08:32:22.328Z,11.00
2023-04-30T08:34:48.886Z,10.98
2023-04-30T08:37:15.821Z,11.06
2023-04-30T08:39:42.265Z,11.18
2023-04-30T08:42:09.732Z,11.21
2023-04-30T08:44:43.624Z,11.27
2023-04-30T08:47:14.381Z,11.35
2023-04-30T08:49:41.736Z,11.41
2023-04-30T08:52:08.719Z,11.46
2023-04-30T08:54:38.284Z,11.51
2023-04-30T08:57:05.800Z,11.51
2023-04-30T08:59:32.396Z,11.46
2023-04-30T09:02:01.881Z,11.45
2023-04-30T09:04:29.125Z,11.61
2023-04-30T09:06:58.998Z,11.64
2023-04-30T09:09:30.631Z,11.74
2023-04-30T09:12:20.396Z,11.84
2023-04-30T09:15:05.260Z,11.89
2023-04-30T09:17:32.817Z,12.10
2023-04-30T09:20:12.941Z,12.25
2023-04-30T09:22:41.951Z,12.28
2023-04-30T09:25:09.890Z,12.29
2023-04-30T09:27:36.430Z,12.29
2023-04-30T09:30:03.761Z,12.32
2023-04-30T09:32:30.445Z,12.41
2023-04-30T09:34:56.998Z,12.51
2023-04-30T09:37:36.069Z,12.59
2023-04-30T09:40:02.667Z,12.62
2023-04-30T09:42:29.127Z,12.66
2023-04-30T09:44:55.705Z,12.75
2023-04-30T09:47:22.437Z,12.88
2023-04-30T09:49:52.512Z,12.94
2023-04-30T09:52:21.988Z,12.92
2023-04-30T09:54:48.561Z,12.91
2023-04-30T09:57:16.607Z,13.04
2023-04-30T09:59:46.093Z,13.18
2023-04-30T10:02:16.604Z,13.28
2023-04-30T10:04:45.031Z,13.33
2023-04-30T10:07:16.728Z,13.41
2023-04-30T10:10:11.795Z,13.51
2023-04-30T10:12:53.365Z,13.61
2023-04-30T10:15:22.802Z,13.61
2023-04-30T10:18:04.850Z,13.79
2023-04-30T10:20:36.592Z,13.87
2023-04-30T10:23:03.300Z,13.79
2023-04-30T10:25:30.423Z,13.88
2023-04-30T10:27:57.555Z,14.02
2023-04-30T10:30:24.376Z,14.19
2023-04-30T10:32:56.229Z,14.17
2023-04-30T10:35:28.709Z,14.13
2023-04-30T10:38:08.258Z,14.12
2023-04-30T10:40:38.408Z,14.14
2023-04-30T10:43:05.003Z,14.27
2023-04-30T10:45:41.410Z,14.34
2023-04-30T10:48:08.195Z,14.55
2023-04-30T10:50:46.109Z,14.55
2023-04-30T10:53:16.061Z,14.69
2023-04-30T10:55:54.859Z,14.83
2023-04-30T10:58:26.254Z,14.83
2023-04-30T11:01:05.073Z,14.83
2023-04-30T11:03:34.272Z,15.00
2023-04-30T11:06:07.762Z,15.04
2023-04-30T11:08:38.944Z,15.14
2023-04-30T11:11:05.673Z,15.13
2023-04-30T11:13:44.043Z,15.26
2023-04-30T11:16:10.996Z,15.42
2023-04-30T11:18:47.426Z,15.51
2023-04-30T11:21:14.073Z,15.67
2023-04-30T11:23:49.877Z,15.68
2023-04-30T11:26:16.342Z,15.75
2023-04-30T11:28:52.241Z,15.93
2023-04-30T11:31:19.297Z,15.94
2023-04-30T11:33:46.366Z,16.04
2023-04-30T11:36:14.545Z,16.07
2023-04-30T11:38:41.363Z,16.16
2023-04-30T11:41:07.796Z,16.33
2023-04-30T11:43:34.928Z,16.42
2023-04-30T11:46:13.917Z,16.52
2023-04-30T11:48:42.344Z,16.47
2023-04-30T11:51:15.818Z,16.46
2023-04-30T11:53:42.874Z,16.47
2023-04-30T11:56:09.454Z,16.43
2023-04-30T11:58:40.306Z,16.41
2023-04-30T12:01:09.690Z,16.53
2023-04-30T12:03:51.119Z,16.69
2023-04-30T12:06:26.485Z,16.95
2023-04-30T12:09:09.021Z,17.24
2023-04-30T12:11:36.234Z,17.41
2023-04-30T12:14:10.960Z,17.33
2023-04-30T12:16:50.971Z,17.63
2023-04-30T12:19:19.124Z,17.73
2023-04-30T12:21:49.720Z,17.64
2023-04-30T12:24:18.015Z,17.37
2023-04-30T12:26:44.978Z,17.41
2023-04-30T12:29:18.878Z,17.43
2023-04-30T12:31:49.170Z,17.45
2023-04-30T12:34:16.102Z,17.60
2023-04-30T12:36:43.073Z,18.09
2023-04-30T12:39:15.940Z,18.39
2023-04-30T12:41:44.851Z,18.23
2023-04-30T12:44:17.262Z,18.13
2023-04-30T12:46:43.848Z,18.28
2023-04-30T12:49:11.318Z,18.35
2023-04-30T12:51:41.100Z,18.35
2023-04-30T12:54:07.888Z,18.37
2023-04-30T12:56:34.418Z,18.35
2023-04-30T12:59:00.939Z,18.17
2023-04-30T13:01:27.565Z,18.60
2023-04-30T13:03:54.475Z,18.33
2023-04-30T13:06:23.031Z,17.86
2023-04-30T13:08:58.436Z,18.18
2023-04-30T13:11:26.696Z,18.54
2023-04-30T13:13:55.452Z,18.78
2023-04-30T13:16:24.480Z,19.24
2023-04-30T13:18:51.536Z,19.65
2023-04-30T13:21:18.070Z,19.79
2023-04-30T13:23:51.922Z,20.07
2023-04-30T13:26:18.993Z,20.14
2023-04-30T13:28:45.457Z,20.06
2023-04-30T13:31:11.938Z,19.90
2023-04-30T13:33:38.455Z,20.09
2023-04-30T13:36:05.097Z,19.97
2023-04-30T13:38:31.534Z,19.89
2023-04-30T13:40:57.992Z,19.67
2023-04-30T13:43:24.534Z,19.30
2023-04-30T13:45:51.270Z,19.39
2023-04-30T13:48:17.754Z,19.54
2023-04-30T13:50:44.244Z,19.74
2023-04-30T13:53:10.718Z,19.92
2023-04-30T13:55:37.212Z,19.87
2023-04-30T13:58:03.856Z,19.97
2023-04-30T14:00:30.341Z,20.16
2023-04-30T14:02:57.089Z,20.24
2023-04-30T14:05:23.830Z,20.21
2023-04-30T14:07:50.348Z,20.30
2023-04-30T14:10:16.777Z,20.19
2023-04-30T14:12:43.327Z,20.19
2023-04-30T14:15:10.109Z,20.19
2023-04-30T14:17:36.702Z,20.27
2023-04-30T14:20:04.127Z,20.44
2023-04-30T14:22:31.171Z,20.16
2023-04-30T14:24:57.662Z,20.77
2023-04-30T14:27:25.326Z,21.32
2023-04-30T14:29:51.875Z,21.64
2023-04-30T14:32:18.519Z,21.74
2023-04-30T14:34:45.209Z,20.85
2023-04-30T14:37:11.737Z,20.92
2023-04-30T14:39:38.295Z,20.61
2023-04-30T14:42:04.904Z,19.97
2023-04-30T14:44:32.428Z,19.47
2023-04-30T14:46:59.001Z,19.13
2023-04-30T14:49:25.472Z,19.05
2023-04-30T14:51:51.912Z,19.13
2023-04-30T14:54:18.399Z,18.96
2023-04-30T14:56:45.026Z,18.80
2023-04-30T14:59:11.965Z,18.63
2023-04-30T15:01:38.465Z,18.65
2023-04-30T15:04:05.460Z,18.51
2023-04-30T15:06:32.068Z,18.42
2023-04-30T15:08:58.586Z,18.35
2023-04-30T15:11:25.335Z,18.23
2023-04-30T15:13:53.441Z,18.20
2023-04-30T15:16:19.893Z,18.17
2023-04-30T15:18:47.048Z,18.21
2023-04-30T15:21:13.485Z,18.30
2023-04-30T15:23:40.234Z,18.47
2023-04-30T15:26:07.001Z,18.83
2023-04-30T15:28:33.840Z,19.55
2023-04-30T15:31:06.213Z,20.00
2023-04-30T15:33:33.690Z,20.11
2023-04-30T15:36:00.210Z,20.38
2023-04-30T15:38:27.739Z,20.41
2023-04-30T15:40:54.233Z,20.05
2023-04-30T15:43:21.335Z,19.66
2023-04-30T15:45:48.361Z,19.02
2023-04-30T15:48:14.913Z,18.68
2023-04-30T15:50:41.457Z,18.40
2023-04-30T15:53:07.903Z,18.26
2023-04-30T15:55:34.360Z,18.71
2023-04-30T15:58:00.907Z,18.91
2023-04-30T16:00:28.826Z,18.98
2023-04-30T16:02:55.710Z,19.18
2023-04-30T16:05:22.358Z,19.34
2023-04-30T16:07:49.544Z,19.43
2023-04-30T16:10:16.317Z,19.47
2023-04-30T16:12:42.798Z,19.38
2023-04-30T16:15:10.816Z,19.23
2023-04-30T16:17:37.280Z,19.39
2023-04-30T16:20:04.122Z,19.17
2023-04-30T16:22:30.762Z,19.05
2023-04-30T16:24:57.640Z,19.18
2023-04-30T16:27:24.268Z,19.23
2023-04-30T16:29:50.819Z,19.12
2023-04-30T16:32:17.796Z,19.14
2023-04-30T16:34:44.259Z,19.13
2023-04-30T16:37:10.719Z,18.99
2023-04-30T16:39:37.145Z,19.01
2023-04-30T16:42:03.723Z,19.02
2023-04-30T16:44:30.192Z,18.96
2023-04-30T16:46:59.420Z,19.08
2023-04-30T16:49:25.913Z,19.11
2023-04-30T16:51:52.433Z,19.12
2023-04-30T16:54:18.937Z,19.04
2023-04-30T16:56:45.555Z,18.84
2023-04-30T16:59:12.041Z,18.50
2023-04-30T17:01:38.562Z,18.33
2023-04-30T17:04:05.267Z,18.26
2023-04-30T17:06:33.200Z,18.17
2023-04-30T17:08:59.734Z,18.00
2023-04-30T17:11:26.316Z,17.93
2023-04-30T17:13:55.093Z,17.81
2023-04-30T17:16:22.152Z,17.81
2023-04-30T17:18:49.049Z,17.86
2023-04-30T17:21:16.032Z,17.80
2023-04-30T17:23:42.801Z,17.70
2023-04-30T17:26:09.613Z,17.56
2023-04-30T17:28:37.412Z,17.48
2023-04-30T17:31:07.056Z,17.36
2023-04-30T17:33:34.165Z,17.29
2023-04-30T17:36:00.831Z,17.29
2023-04-30T17:38:28.599Z,17.23
2023-04-30T17:40:56.660Z,17.14
2023-04-30T17:43:23.475Z,17.12
2023-04-30T17:45:53.041Z,17.07
2023-04-30T17:48:19.890Z,16.99
2023-04-30T17:50:46.331Z,16.86
2023-04-30T17:53:12.771Z,16.74
2023-04-30T17:55:39.334Z,16.64
2023-04-30T17:58:06.927Z,16.55
2023-04-30T18:00:34.301Z,16.46
2023-04-30T18:03:00.815Z,16.38
2023-04-30T18:05:27.429Z,16.30
2023-04-30T18:07:53.971Z,16.23
2023-04-30T18:10:20.423Z,16.18
2023-04-30T18:12:47.106Z,16.09
2023-04-30T18:15:16.505Z,16.07
2023-04-30T18:17:43.186Z,16.02
2023-04-30T18:20:11.940Z,15.98
2023-04-30T18:22:43.227Z,15.87
2023-04-30T18:25:11.581Z,15.81
2023-04-30T18:27:38.018Z,15.78
2023-04-30T18:30:05.408Z,15.79
2023-04-30T18:32:32.676Z,15.76
2023-04-30T18:34:59.349Z,15.68
2023-04-30T18:37:25.781Z,15.61
2023-04-30T18:39:52.478Z,15.54
2023-04-30T18:42:18.960Z,15.51
2023-04-30T18:44:45.724Z,15.43
2023-04-30T18:47:12.467Z,15.39
2023-04-30T18:49:39.051Z,15.31
2023-04-30T18:52:05.480Z,15.18
2023-04-30T18:54:32.051Z,15.00
2023-04-30T18:56:58.598Z,14.83
2023-04-30T18:59:27.328Z,14.78
2023-04-30T19:01:54.747Z,14.72
2023-04-30T19:04:21.793Z,14.71
2023-04-30T19:06:49.909Z,14.60
2023-04-30T19:09:17.523Z,14.45
2023-04-30T19:11:43.962Z,14.44
2023-04-30T19:14:10.560Z,14.38
2023-04-30T19:16:37.223Z,14.39
2023-04-30T19:19:03.859Z,14.40
2023-04-30T19:21:32.208Z,14.38
2023-04-30T19:23:58.670Z,14.40
2023-04-30T19:26:25.963Z,14.39
2023-04-30T19:28:52.541Z,14.35
2023-04-30T19:31:19.320Z,14.33
2023-04-30T19:33:45.873Z,14.29
2023-04-30T19:36:12.647Z,14.27
2023-04-30T19:38:39.224Z,14.26
2023-04-30T19:41:06.002Z,14.23
2023-04-30T19:43:32.501Z,14.17
2023-04-30T19:45:59.554Z,14.13
2023-04-30T19:48:26.108Z,14.11
2023-04-30T19:50:53.691Z,14.07
2023-04-30T19:53:21.513Z,14.04
2023-04-30T19:55:48.283Z,13.97
2023-04-30T19:58:14.904Z,13.91
2023-04-30T20:00:44.968Z,13.83
2023-04-30T20:03:12.896Z,13.74
2023-04-30T20:05:39.785Z,13.65
2023-04-30T20:08:07.988Z,13.60
2023-04-30T20:10:36.332Z,13.47
2023-04-30T20:13:06.202Z,13.37
2023-04-30T20:15:33.638Z,13.28
2023-04-30T20:18:05.709Z,13.31
2023-04-30T20:20:32.445Z,13.29
2023-04-30T20:23:10.047Z,13.29
2023-04-30T20:25:36.945Z,13.26
2023-04-30T20:28:04.120Z,13.22
2023-04-30T20:30:30.586Z,13.17
2023-04-30T20:32:57.065Z,13.15
2023-04-30T20:35:23.829Z,13.09
2023-04-30T20:37:54.502Z,12.93
2023-04-30T20:40:21.402Z,12.83
2023-04-30T20:42:47.980Z,12.73
2023-04-30T20:45:14.841Z,12.72
2023-04-30T20:47:41.320Z,12.71
2023-04-30T20:50:08.065Z,12.75
2023-04-30T20:52:34.893Z,12.78
2023-04-30T20:55:01.532Z,12.79
2023-04-30T20:57:28.185Z,12.78
2023-04-30T20:59:55.037Z,12.76
2023-04-30T21:02:21.987Z,12.72
2023-04-30T21:04:48.478Z,12.58
2023-04-30T21:07:14.881Z,12.41
2023-04-30T21:09:41.585Z,12.30
2023-04-30T21:12:08.087Z,12.21
2023-04-30T21:14:35.615Z,12.17
2023-04-30T21:17:02.174Z,12.14
2023-04-30T21:19:28.728Z,12.13
2023-04-30T21:21:55.279Z,12.16
2023-04-30T21:24:21.696Z,12.17
2023-04-30T21:26:48.114Z,12.19
2023-04-30T21:29:14.644Z,12.21
2023-04-30T21:31:41.092Z,12.24
2023-04-30T21:34:07.525Z,12.22
2023-04-30T21:36:35.225Z,12.16
2023-04-30T21:39:01.686Z,12.12
2023-04-30T21:41:28.534Z,12.10
2023-04-30T21:43:55.345Z,12.09
2023-04-30T21:46:22.990Z,12.05
2023-04-30T21:48:49.639Z,12.03
2023-04-30T21:51:17.532Z,12.03
2023-04-30T21:53:45.520Z,11.98
2023-04-30T21:56:12.740Z,11.97
2023-04-30T21:58:39.678Z,11.94
2023-04-30T22:01:06.289Z,11.88
2023-04-30T22:03:33.553Z,11.82
2023-04-30T22:06:00.810Z,11.77
2023-04-30T22:08:28.043Z,11.73
2023-04-30T22:10:59.329Z,11.68
2023-04-30T22:13:26.989Z,11.58
2023-04-30T22:15:53.918Z,11.53
2023-04-30T22:18:21.966Z,11.48
2023-04-30T22:20:49.439Z,11.43
2023-04-30T22:23:16.623Z,11.41
2023-04-30T22:25:43.188Z,11.39
2023-04-30T22:28:12.864Z,11.38
2023-04-30T22:30:40.092Z,11.35
2023-04-30T22:33:06.864Z,11.31
2023-04-30T22:35:38.078Z,11.28
2023-04-30T22:38:05.427Z,11.24
2023-04-30T22:40:39.123Z,11.21
2023-04-30T22:43:06.003Z,11.14
2023-04-30T22:45:36.872Z,11.09
2023-04-30T22:48:04.368Z,11.05
2023-04-30T22:50:31.601Z,11.08
2023-04-30T22:52:59.416Z,11.08
2023-04-30T22:55:27.032Z,11.05
2023-04-30T22:57:53.980Z,11.05
2023-04-30T23:00:21.204Z,11.00
2023-04-30T23:02:47.900Z,10.94
2023-04-30T23:05:14.852Z,10.92
2023-04-30T23:07:41.412Z,10.87
2023-04-30T23:10:08.089Z,10.84
2023-04-30T23:12:35.612Z,10.78
2023-04-30T23:15:02.140Z,10.73
2023-04-30T23:17:28.670Z,10.69
2023-04-30T23:19:55.479Z,10.66
2023-04-30T23:22:22.123Z,10.64
2023-04-30T23:24:48.635Z,10.59
2023-04-30T23:27:15.150Z,10.57
2023-04-30T23:29:42.992Z,10.51
2023-04-30T23:32:09.712Z,10.47
2023-04-30T23:34:36.205Z,10.45
2023-04-30T23:37:02.972Z,10.38
2023-04-30T23:39:29.397Z,10.36
2023-04-30T23:41:56.322Z,10.32
2023-04-30T23:44:22.816Z,10.28
2023-04-30T23:46:50.978Z,10.24
2023-04-30T23:49:17.971Z,10.20
2023-04-30T23:51:45.236Z,10.13
2023-04-30T23:54:12.060Z,10.07
2023-04-30T23:56:38.569Z,10.05
2023-04-30T23:59:05.034Z,10.01
